createdAt,value
2023-04-28T00:00:29.103Z,32.10
2023-04-28T00:02:58.351Z,31.65
2023-04-28T00:05:28.253Z,32.55
2023-04-28T00:07:58.683Z,31.23
2023-04-28T00:10:27.704Z,34.73
2023-04-28T00:12:56.673Z,33.55
2023-04-28T00:15:25.952Z,35.38
2023-04-28T00:17:55.425Z,35.45
2023-04-28T00:20:24.660Z,33.88
2023-04-28T00:22:53.654Z,36.03
2023-04-28T00:25:24.081Z,35.90
2023-04-28T00:27:53.119Z,33.83
2023-04-28T00:30:22.314Z,32.88
2023-04-28T00:32:51.757Z,34.15
2023-04-28T00:35:21.139Z,34.50
2023-04-28T00:37:50.482Z,32.25
2023-04-28T00:40:19.905Z,35.90
2023-04-28T00:42:50.463Z,32.97
2023-04-28T00:45:19.990Z,32.35
2023-04-28T00:47:49.193Z,31.10
2023-04-28T00:50:18.531Z,32.78
2023-04-28T00:52:48.669Z,29.58
2023-04-28T00:55:18.049Z,29.15
2023-04-28T00:57:49.355Z,27.48
2023-04-28T01:02:47.414Z,25.00
2023-04-28T01:05:17.798Z,25.85
2023-04-28T01:07:47.582Z,26.50
2023-04-28T01:10:16.679Z,25.13
2023-04-28T01:12:46.090Z,24.60
2023-04-28T01:15:19.271Z,24.38
2023-04-28T01:17:49.945Z,24.02
2023-04-28T01:20:19.073Z,25.33
2023-04-28T01:22:48.216Z,24.05
2023-04-28T01:25:18.932Z,24.55
2023-04-28T01:27:48.047Z,24.35
2023-04-28T01:30:17.274Z,24.35
2023-04-28T01:32:46.347Z,24.67
2023-04-28T01:35:15.519Z,23.08
2023-04-28T01:37:44.667Z,24.05
2023-04-28T01:40:14.650Z,24.40
2023-04-28T01:42:45.133Z,27.45
2023-04-28T01:45:14.227Z,25.13
2023-04-28T01:47:43.277Z,24.08
2023-04-28T01:50:12.614Z,23.80
2023-04-28T01:52:41.611Z,26.23
2023-04-28T01:55:11.053Z,25.88
2023-04-28T01:57:40.789Z,26.83
2023-04-28T02:00:12.553Z,25.85
2023-04-28T02:02:51.486Z,25.35
2023-04-28T02:05:20.599Z,26.10
2023-04-28T02:07:50.437Z,25.33
2023-04-28T02:10:19.483Z,25.70
2023-04-28T02:12:48.564Z,26.17
2023-04-28T02:15:20.649Z,25.83
2023-04-28T02:17:49.747Z,27.10
2023-04-28T02:20:18.923Z,25.70
2023-04-28T02:22:47.912Z,25.85
2023-04-28T02:25:16.952Z,25.77
2023-04-28T02:27:46.152Z,27.30
2023-04-28T02:30:15.421Z,27.98
2023-04-28T02:32:46.025Z,27.95
2023-04-28T02:35:17.929Z,27.27
2023-04-28T02:37:46.926Z,28.95
2023-04-28T02:40:16.233Z,28.30
2023-04-28T02:42:45.272Z,29.25
2023-04-28T02:45:14.467Z,28.10
2023-04-28T02:47:43.489Z,31.45
2023-04-28T02:50:13.961Z,32.33
2023-04-28T02:52:43.015Z,33.97
2023-04-28T02:55:12.045Z,35.65
2023-04-28T02:57:41.166Z,33.65
2023-04-28T03:00:11.505Z,34.50
2023-04-28T03:02:47.312Z,34.28
2023-04-28T03:05:17.903Z,33.72
2023-04-28T03:07:47.129Z,35.40
2023-04-28T03:10:17.328Z,34.72
2023-04-28T03:12:46.397Z,31.90
2023-04-28T03:15:15.515Z,32.35
2023-04-28T03:17:45.316Z,30.50
2023-04-28T03:20:14.710Z,29.00
2023-04-28T03:22:45.137Z,29.60
2023-04-28T03:25:14.508Z,30.63
2023-04-28T03:27:53.939Z,31.48
2023-04-28T03:30:23.122Z,32.63
2023-04-28T03:32:52.228Z,31.88
2023-04-28T03:35:21.643Z,32.53
2023-04-28T03:37:52.344Z,35.92
2023-04-28T03:40:21.635Z,34.53
2023-04-28T03:43:09.392Z,35.53
2023-04-28T03:45:43.232Z,34.38
2023-04-28T03:48:12.440Z,35.50
2023-04-28T03:50:42.641Z,35.42
2023-04-28T03:53:13.127Z,36.05
2023-04-28T03:55:42.323Z,35.47
2023-04-28T03:58:11.347Z,37.13
2023-04-28T04:00:40.405Z,37.00
2023-04-28T04:03:09.733Z,37.42
2023-04-28T04:05:40.816Z,38.38
2023-04-28T04:08:10.397Z,38.17
2023-04-28T04:10:40.786Z,35.95
2023-04-28T04:13:09.893Z,37.93
2023-04-28T04:15:38.934Z,35.65
2023-04-28T04:18:08.050Z,36.85
2023-04-28T04:20:57.273Z,37.13
2023-04-28T04:23:26.435Z,36.30
2023-04-28T04:25:57.660Z,35.13
2023-04-28T04:28:26.723Z,34.83
2023-04-28T04:30:55.799Z,34.65
2023-04-28T04:33:25.187Z,34.85
2023-04-28T04:35:55.044Z,34.90
2023-04-28T04:38:24.843Z,34.80
2023-04-28T04:40:53.971Z,34.00
2023-04-28T04:43:24.407Z,34.38
2023-04-28T04:45:53.512Z,34.47
2023-04-28T04:48:22.654Z,35.20
2023-04-28T04:50:51.684Z,35.30
2023-04-28T04:53:20.684Z,32.85
2023-04-28T04:55:49.876Z,35.22
2023-04-28T04:58:19.115Z,33.90
2023-04-28T05:01:18.894Z,33.00
2023-04-28T05:03:48.108Z,34.27
2023-04-28T05:06:17.220Z,34.17
2023-04-28T05:08:48.864Z,34.78
2023-04-28T05:11:17.987Z,34.55
2023-04-28T05:13:47.140Z,34.05
2023-04-28T05:16:16.685Z,33.20
2023-04-28T05:19:13.494Z,35.85
2023-04-28T05:21:42.723Z,37.88
2023-04-28T05:24:11.734Z,35.80
2023-04-28T05:26:40.803Z,36.72
2023-04-28T05:31:40.996Z,37.97
2023-04-28T05:34:12.734Z,37.03
2023-04-28T05:36:42.326Z,37.92
2023-04-28T05:39:13.259Z,36.88
2023-04-28T05:41:43.799Z,35.38
2023-04-28T05:44:13.453Z,37.35
2023-04-28T05:46:42.675Z,37.45
2023-04-28T05:49:13.403Z,37.17
2023-04-28T05:51:42.900Z,36.20
2023-04-28T05:54:11.900Z,38.58
2023-04-28T05:56:46.032Z,36.35
2023-04-28T05:59:15.964Z,37.50
2023-04-28T06:01:45.150Z,36.30
2023-04-28T06:04:16.109Z,37.90
2023-04-28T06:06:45.699Z,37.60
2023-04-28T06:09:15.144Z,37.90
2023-04-28T06:11:44.463Z,35.88
2023-04-28T06:14:13.624Z,37.75
2023-04-28T06:16:44.504Z,36.35
2023-04-28T06:19:16.146Z,38.60
2023-04-28T06:21:46.732Z,37.38
2023-04-28T06:24:23.411Z,37.15
2023-04-28T06:26:55.768Z,36.20
2023-04-28T06:29:25.348Z,35.80
2023-04-28T06:31:57.658Z,35.30
2023-04-28T06:34:31.731Z,36.10
2023-04-28T06:37:00.956Z,34.83
2023-04-28T06:39:30.159Z,36.03
2023-04-28T06:41:59.256Z,35.67
2023-04-28T06:44:30.382Z,36.38
2023-04-28T06:46:59.630Z,34.67
2023-04-28T06:49:30.089Z,35.00
2023-04-28T06:52:03.441Z,33.33
2023-04-28T06:54:32.827Z,33.15
2023-04-28T06:57:02.276Z,34.22
2023-04-28T06:59:32.397Z,32.10
2023-04-28T07:02:01.635Z,33.00
2023-04-28T07:04:32.188Z,33.08
2023-04-28T07:07:01.508Z,32.90
2023-04-28T07:09:31.567Z,30.98
2023-04-28T07:12:00.762Z,31.48
2023-04-28T07:14:29.941Z,31.48
2023-04-28T07:16:58.953Z,34.53
2023-04-28T07:19:27.994Z,32.00
2023-04-28T07:21:58.370Z,32.08
2023-04-28T07:24:27.441Z,31.83
2023-04-28T07:26:57.209Z,31.38
2023-04-28T07:29:28.929Z,31.13
2023-04-28T07:31:58.060Z,28.70
2023-04-28T07:34:27.528Z,28.77
2023-04-28T07:36:58.666Z,27.33
2023-04-28T07:39:27.832Z,27.67
2023-04-28T07:41:58.111Z,26.83
2023-04-28T07:44:27.120Z,25.88
2023-04-28T07:46:56.376Z,25.90
2023-04-28T07:49:25.482Z,24.75
2023-04-28T07:51:55.792Z,23.02
2023-04-28T07:54:26.848Z,21.80
2023-04-28T07:56:57.986Z,22.50
2023-04-28T07:59:27.094Z,20.38
2023-04-28T08:01:57.019Z,21.45
2023-04-28T08:04:26.889Z,21.50
2023-04-28T08:06:56.375Z,31.20
2023-04-28T08:09:26.864Z,32.00
2023-04-28T08:11:55.910Z,33.63
2023-04-28T08:14:25.118Z,33.28
2023-04-28T08:16:54.146Z,34.88
2023-04-28T08:19:23.166Z,35.42
2023-04-28T08:21:52.180Z,35.10
2023-04-28T08:24:21.309Z,35.47
2023-04-28T08:26:51.812Z,35.25
2023-04-28T08:29:20.826Z,33.40
2023-04-28T08:31:49.867Z,33.30
2023-04-28T08:34:19.088Z,34.40
2023-04-28T08:36:48.477Z,35.10
2023-04-28T08:39:17.935Z,33.97
2023-04-28T08:41:47.199Z,34.72
2023-04-28T08:44:17.911Z,33.35
2023-04-28T08:46:50.952Z,34.65
2023-04-28T08:49:20.332Z,34.83
2023-04-28T08:51:57.314Z,34.60
2023-04-28T08:54:31.259Z,34.20
2023-04-28T08:57:01.287Z,35.88
2023-04-28T08:59:32.519Z,37.17
2023-04-28T09:04:31.029Z,37.10
2023-04-28T09:07:00.185Z,38.90
2023-04-28T09:09:34.178Z,37.63
2023-04-28T09:12:06.326Z,39.08
2023-04-28T09:14:38.658Z,39.38
2023-04-28T09:17:13.080Z,38.75
2023-04-28T09:19:43.557Z,38.08
2023-04-28T09:22:24.667Z,36.53
2023-04-28T09:24:56.408Z,35.85
2023-04-28T09:27:29.357Z,35.60
2023-04-28T09:29:59.942Z,34.63
2023-04-28T09:32:29.592Z,35.23
2023-04-28T09:34:59.731Z,36.28
2023-04-28T09:37:31.090Z,36.72
2023-04-28T09:42:35.296Z,33.97
2023-04-28T09:45:07.831Z,31.55
2023-04-28T09:47:39.295Z,32.15
2023-04-28T09:52:38.723Z,28.58
2023-04-28T09:55:09.741Z,28.95
2023-04-28T09:57:39.352Z,27.52
2023-04-28T10:00:10.840Z,30.00
2023-04-28T10:02:43.888Z,29.70
2023-04-28T10:05:14.080Z,28.92
2023-04-28T10:07:43.262Z,27.55
2023-04-28T10:10:14.787Z,27.58
2023-04-28T10:12:44.959Z,32.15
2023-04-28T10:15:15.354Z,26.70
2023-04-28T10:17:44.443Z,26.52
2023-04-28T10:20:16.540Z,26.42
2023-04-28T10:23:00.078Z,26.98
2023-04-28T10:25:32.450Z,25.88
2023-04-28T10:28:02.424Z,24.25
2023-04-28T10:30:33.044Z,25.15
2023-04-28T10:33:26.546Z,26.00
2023-04-28T10:35:56.082Z,24.77
2023-04-28T10:38:25.180Z,25.70
2023-04-28T10:40:55.236Z,24.08
2023-04-28T10:43:39.704Z,24.80
2023-04-28T10:46:13.351Z,25.40
2023-04-28T10:48:58.950Z,25.30
2023-04-28T10:51:33.179Z,27.27
2023-04-28T10:54:21.363Z,26.85
2023-04-28T10:57:21.918Z,26.70
2023-04-28T10:59:51.702Z,25.00
2023-04-28T11:02:44.527Z,26.02
2023-04-28T11:05:19.324Z,24.58
2023-04-28T11:08:31.757Z,24.73
2023-04-28T11:11:21.617Z,23.63
2023-04-28T11:13:51.128Z,22.33
2023-04-28T11:16:25.791Z,22.30
2023-04-28T11:19:04.849Z,22.52
2023-04-28T11:21:34.885Z,21.35
2023-04-28T11:24:11.246Z,20.95
2023-04-28T11:26:40.324Z,20.80
2023-04-28T11:29:09.715Z,19.92
2023-04-28T11:31:39.486Z,20.02
2023-04-28T11:34:14.550Z,19.70
2023-04-28T11:36:43.760Z,21.60
2023-04-28T11:39:13.882Z,22.50
2023-04-28T11:41:44.059Z,22.33
2023-04-28T11:44:14.126Z,22.95
2023-04-28T11:46:50.594Z,22.45
2023-04-28T11:49:21.869Z,23.50
2023-04-28T11:51:50.943Z,23.60
2023-04-28T11:54:25.151Z,21.75
2023-04-28T11:56:55.231Z,23.10
2023-04-28T11:59:28.487Z,21.55
2023-04-28T12:01:59.536Z,21.52
2023-04-28T12:04:32.006Z,22.17
2023-04-28T12:07:03.844Z,23.35
2023-04-28T12:09:33.529Z,22.80
2023-04-28T12:12:04.963Z,22.52
2023-04-28T12:14:54.578Z,24.27
2023-04-28T12:17:27.522Z,23.83
2023-04-28T12:20:00.989Z,21.55
2023-04-28T12:22:31.064Z,22.95
2023-04-28T12:25:08.284Z,22.60
2023-04-28T12:27:39.302Z,22.73
2023-04-28T12:30:26.506Z,23.13
2023-04-28T12:32:56.214Z,22.30
2023-04-28T12:35:28.056Z,22.05
2023-04-28T12:37:59.129Z,22.23
2023-04-28T12:40:28.450Z,22.48
2023-04-28T12:42:57.888Z,22.10
2023-04-28T12:45:28.110Z,20.92
2023-04-28T12:47:58.535Z,23.08
2023-04-28T12:50:32.401Z,22.17
2023-04-28T12:53:01.487Z,21.63
2023-04-28T12:55:30.931Z,21.77
2023-04-28T12:58:00.552Z,22.50
2023-04-28T13:00:29.657Z,24.33
2023-04-28T13:03:01.023Z,22.25
2023-04-28T13:08:01.531Z,21.15
2023-04-28T13:10:32.518Z,22.08
2023-04-28T13:13:02.060Z,21.40
2023-04-28T13:15:36.748Z,21.88
2023-04-28T13:18:08.107Z,21.42
2023-04-28T13:20:40.970Z,19.90
2023-04-28T13:23:10.152Z,23.45
2023-04-28T13:25:39.175Z,24.48
2023-04-28T13:28:08.249Z,21.80
2023-04-28T13:30:37.317Z,23.52
2023-04-28T13:33:06.465Z,22.55
2023-04-28T13:35:35.603Z,22.60
2023-04-28T13:38:07.101Z,23.23
2023-04-28T13:40:36.410Z,24.58
2023-04-28T13:43:05.530Z,25.23
2023-04-28T13:45:34.574Z,24.40
2023-04-28T13:48:04.161Z,24.10
2023-04-28T13:50:33.286Z,24.13
2023-04-28T13:53:05.068Z,23.63
2023-04-28T13:55:35.610Z,22.20
2023-04-28T13:58:06.043Z,21.13
2023-04-28T14:00:37.498Z,18.47
2023-04-28T14:05:48.255Z,17.23
2023-04-28T14:08:20.121Z,18.10
2023-04-28T14:10:51.939Z,21.83
2023-04-28T14:13:21.469Z,20.17
2023-04-28T14:15:58.481Z,20.92
2023-04-28T14:18:28.005Z,20.92
2023-04-28T14:20:57.213Z,20.10
2023-04-28T14:23:26.831Z,19.92
2023-04-28T14:25:58.194Z,22.17
2023-04-28T14:30:57.446Z,17.38
2023-04-28T14:33:27.025Z,16.27
2023-04-28T14:35:56.264Z,17.48
2023-04-28T14:38:25.632Z,18.70
2023-04-28T14:40:56.154Z,19.88
2023-04-28T14:43:25.758Z,20.87
2023-04-28T14:45:55.056Z,20.50
2023-04-28T14:48:24.325Z,21.45
2023-04-28T14:50:53.576Z,20.92
2023-04-28T14:53:23.741Z,19.88
2023-04-28T14:55:53.721Z,20.52
2023-04-28T14:58:25.901Z,20.23
2023-04-28T15:00:55.075Z,20.05
2023-04-28T15:03:24.488Z,20.23
2023-04-28T15:05:54.503Z,19.25
2023-04-28T15:08:23.668Z,19.33
2023-04-28T15:10:52.704Z,19.15
2023-04-28T15:13:22.237Z,16.92
2023-04-28T15:15:52.771Z,16.35
2023-04-28T15:18:22.245Z,16.92
2023-04-28T15:20:51.997Z,17.63
2023-04-28T15:23:21.157Z,17.15
2023-04-28T15:25:53.405Z,16.33
2023-04-28T15:28:22.886Z,15.23
2023-04-28T15:30:53.492Z,15.50
2023-04-28T15:33:22.782Z,15.50
2023-04-28T15:35:51.928Z,15.93
2023-04-28T15:38:21.019Z,15.57
2023-04-28T15:40:50.010Z,14.70
2023-04-28T15:43:19.110Z,15.48
2023-04-28T15:45:48.153Z,14.77
2023-04-28T15:48:18.642Z,15.20
2023-04-28T15:50:47.880Z,15.03
2023-04-28T15:53:17.472Z,14.18
2023-04-28T15:55:46.691Z,13.77
2023-04-28T15:58:15.866Z,13.30
2023-04-28T16:00:45.935Z,12.07
2023-04-28T16:03:15.315Z,12.27
2023-04-28T16:05:46.326Z,11.63
2023-04-28T16:08:15.910Z,12.38
2023-04-28T16:10:45.210Z,11.32
2023-04-28T16:13:14.650Z,10.77
2023-04-28T16:15:43.708Z,9.93
2023-04-28T16:18:12.954Z,9.80
2023-04-28T16:20:42.293Z,9.73
2023-04-28T16:23:14.153Z,8.35
2023-04-28T16:25:43.559Z,7.80
2023-04-28T16:28:12.698Z,8.80
2023-04-28T16:30:42.100Z,6.70
2023-04-28T16:33:11.364Z,6.93
2023-04-28T16:35:40.456Z,6.45
2023-04-28T16:38:09.528Z,6.82
2023-04-28T16:40:40.045Z,5.85
2023-04-28T16:43:09.042Z,4.93
2023-04-28T16:45:38.088Z,5.57
2023-04-28T16:48:07.372Z,5.72
2023-04-28T16:50:37.722Z,5.10
2023-04-28T16:55:36.729Z,4.60
2023-04-28T16:58:07.586Z,4.75
2023-04-28T17:00:36.615Z,4.60
2023-04-28T17:03:05.978Z,4.70
2023-04-28T17:05:35.152Z,5.30
2023-04-28T17:08:04.217Z,5.07
2023-04-28T17:10:33.553Z,5.47
2023-04-28T17:13:02.568Z,4.88
2023-04-28T17:15:33.092Z,4.82
2023-04-28T17:18:02.316Z,5.17
2023-04-28T17:20:31.564Z,3.95
2023-04-28T17:23:00.586Z,4.10
2023-04-28T17:25:29.709Z,4.32
2023-04-28T17:27:59.681Z,4.05
2023-04-28T17:30:28.719Z,5.05
2023-04-28T17:32:59.855Z,4.30
2023-04-28T17:35:29.134Z,3.65
2023-04-28T17:37:58.260Z,3.92
2023-04-28T17:40:28.014Z,3.75
2023-04-28T17:42:57.390Z,5.20
2023-04-28T17:45:26.447Z,5.05
2023-04-28T17:47:57.767Z,4.45
2023-04-28T17:52:56.978Z,4.60
2023-04-28T17:55:26.372Z,4.80
2023-04-28T17:57:55.364Z,4.90
2023-04-28T18:00:24.606Z,3.90
2023-04-28T18:02:55.207Z,4.30
2023-04-28T18:05:26.086Z,4.55
2023-04-28T18:07:57.143Z,5.75
2023-04-28T18:10:28.200Z,5.60
2023-04-28T18:12:58.160Z,6.80
2023-04-28T18:15:27.735Z,4.50
2023-04-28T18:17:56.951Z,4.38
2023-04-28T18:20:26.237Z,4.80
2023-04-28T18:22:57.326Z,4.75
2023-04-28T18:25:26.387Z,4.97
2023-04-28T18:27:55.454Z,3.50
2023-04-28T18:30:27.382Z,1.73
2023-04-28T18:32:56.467Z,1.20
2023-04-28T18:35:25.458Z,1.95
2023-04-28T18:37:54.940Z,4.97
2023-04-28T18:40:26.264Z,5.25
2023-04-28T18:45:24.203Z,7.28
2023-04-28T18:47:53.451Z,8.00
2023-04-28T18:50:24.263Z,9.05
2023-04-28T18:52:53.605Z,9.20
2023-04-28T18:55:24.198Z,9.82
2023-04-28T18:57:54.023Z,10.30
2023-04-28T19:00:23.601Z,9.75
2023-04-28T19:02:52.751Z,10.20
2023-04-28T19:05:22.520Z,9.10
2023-04-28T19:07:51.531Z,8.38
2023-04-28T19:10:20.808Z,8.30
2023-04-28T19:12:51.227Z,10.00
2023-04-28T19:15:20.536Z,9.70
2023-04-28T19:17:49.734Z,9.15
2023-04-28T19:20:19.139Z,9.05
2023-04-28T19:22:48.330Z,8.40
2023-04-28T19:25:17.823Z,8.50
2023-04-28T19:27:47.024Z,8.63
2023-04-28T19:30:17.818Z,8.98
2023-04-28T19:32:46.835Z,9.48
2023-04-28T19:35:16.499Z,9.02
2023-04-28T19:37:45.660Z,10.10
2023-04-28T19:40:15.001Z,10.18
2023-04-28T19:42:44.035Z,11.32
2023-04-28T19:45:13.305Z,12.25
2023-04-28T19:47:43.791Z,12.35
2023-04-28T19:50:13.030Z,13.50
2023-04-28T19:52:42.059Z,13.40
2023-04-28T19:55:11.584Z,13.52
2023-04-28T19:57:41.051Z,13.38
2023-04-28T20:00:11.173Z,14.40
2023-04-28T20:02:40.523Z,14.52
2023-04-28T20:05:11.672Z,14.68
2023-04-28T20:07:40.876Z,14.10
2023-04-28T20:10:10.516Z,13.85
2023-04-28T20:12:39.689Z,14.93
2023-04-28T20:15:09.964Z,15.15
2023-04-28T20:17:39.017Z,16.15
2023-04-28T20:20:13.572Z,20.38
2023-04-28T20:22:42.583Z,18.20
2023-04-28T20:25:12.216Z,17.80
2023-04-28T20:27:41.225Z,19.23
2023-04-28T20:30:11.146Z,19.50
2023-04-28T20:32:40.319Z,17.30
2023-04-28T20:35:11.304Z,16.85
2023-04-28T20:37:40.362Z,18.25
2023-04-28T20:40:11.717Z,18.50
2023-04-28T20:45:10.108Z,14.75
2023-04-28T20:47:39.160Z,17.60
2023-04-28T20:50:13.409Z,20.73
2023-04-28T20:52:42.521Z,21.20
2023-04-28T20:55:12.139Z,30.35
2023-04-28T20:57:41.193Z,31.52
2023-04-28T21:00:11.622Z,28.25
2023-04-28T21:02:41.019Z,24.75
2023-04-28T21:05:10.790Z,22.23
2023-04-28T21:07:41.207Z,20.33
2023-04-28T21:10:11.383Z,24.03
2023-04-28T21:12:41.455Z,22.38
2023-04-28T21:15:11.008Z,23.42
2023-04-28T21:17:40.048Z,25.00
2023-04-28T21:20:09.986Z,24.63
2023-04-28T21:22:40.386Z,22.33
2023-04-28T21:25:10.179Z,22.37
2023-04-28T21:27:39.243Z,19.80
2023-04-28T21:30:10.309Z,21.48
2023-04-28T21:32:39.470Z,22.05
2023-04-28T21:35:09.209Z,20.42
2023-04-28T21:37:38.332Z,19.70
2023-04-28T21:40:10.344Z,19.95
2023-04-28T21:42:39.395Z,18.10
2023-04-28T21:45:09.924Z,16.00
2023-04-28T21:47:42.071Z,16.00
2023-04-28T21:50:12.623Z,15.05
2023-04-28T21:52:41.640Z,13.98
2023-04-28T21:55:12.207Z,13.93
2023-04-28T21:57:41.261Z,13.60
2023-04-28T22:00:12.660Z,13.80
2023-04-28T22:02:44.850Z,12.30
2023-04-28T22:05:13.961Z,12.55
2023-04-28T22:07:43.416Z,13.00
2023-04-28T22:10:14.358Z,13.23
2023-04-28T22:12:43.362Z,13.40
2023-04-28T22:15:12.754Z,12.70
2023-04-28T22:17:41.842Z,19.27
2023-04-28T22:20:11.514Z,22.58
2023-04-28T22:22:40.916Z,23.00
2023-04-28T22:25:10.556Z,14.10
2023-04-28T22:27:41.134Z,15.65
2023-04-28T22:30:11.153Z,18.10
2023-04-28T22:32:40.269Z,19.88
2023-04-28T22:35:10.214Z,16.77
2023-04-28T22:37:39.237Z,14.15
2023-04-28T22:40:09.363Z,11.68
2023-04-28T22:42:39.019Z,10.45
2023-04-28T22:45:10.993Z,9.95
2023-04-28T22:47:41.775Z,9.70
2023-04-28T22:50:11.510Z,9.30
2023-04-28T22:52:40.783Z,9.32
2023-04-28T22:55:10.658Z,10.05
2023-04-28T22:57:39.792Z,9.65
2023-04-28T23:00:11.742Z,10.38
2023-04-28T23:02:40.812Z,11.90
2023-04-28T23:05:10.309Z,12.05
2023-04-28T23:07:39.312Z,13.18
2023-04-28T23:10:09.715Z,13.40
2023-04-28T23:12:38.715Z,13.97
2023-04-28T23:15:10.185Z,17.05
2023-04-28T23:17:39.249Z,17.10
2023-04-28T23:20:09.223Z,18.42
2023-04-28T23:22:38.207Z,18.90
2023-04-28T23:25:07.992Z,18.25
2023-04-28T23:27:37.569Z,16.87
2023-04-28T23:30:07.675Z,15.35
2023-04-28T23:32:38.720Z,13.15
2023-04-28T23:35:08.419Z,11.63
2023-04-28T23:37:37.429Z,11.02
2023-04-28T23:40:07.705Z,9.00
2023-04-28T23:42:37.286Z,8.68
2023-04-28T23:45:07.276Z,9.73
2023-04-28T23:47:37.783Z,11.73
2023-04-28T23:50:08.276Z,11.60
2023-04-28T23:52:38.739Z,11.15
2023-04-28T23:55:09.596Z,10.70
2023-04-28T23:57:38.958Z,10.02
